sensor_id;sensor_type;location;lat;lon;timestamp;temperature;humidity
27900;DHT22;15243;50.726;7.080;2023-03-02T00:01:30;-0.80;99.90
27900;DHT22;15243;50.726;7.080;2023-03-02T00:03:59;-0.80;99.90
27900;DHT22;15243;50.726;7.080;2023-03-02T00:06:28;-0.80;99.90
27900;DHT22;15243;50.726;7.080;2023-03-02T00:08:58;-0.80;99.90
27900;DHT22;15243;50.726;7.080;2023-03-02T00:11:29;-0.90;99.90
27900;DHT22;15243;50.726;7.080;2023-03-02T00:13:57;-0.90;99.90
27900;DHT22;15243;50.726;7.080;2023-03-02T00:16:24;-0.90;99.90
27900;DHT22;15243;50.726;7.080;2023-03-02T00:18:51;-0.90;99.90
27900;DHT22;15243;50.726;7.080;2023-03-02T00:21:18;-1.00;99.90
27900;DHT22;15243;50.726;7.080;2023-03-02T00:23:45;-0.90;99.90
27900;DHT22;15243;50.726;7.080;2023-03-02T00:26:12;-0.90;99.90
27900;DHT22;15243;50.726;7.080;2023-03-02T00:28:38;-0.90;99.90
27900;DHT22;15243;50.726;7.080;2023-03-02T00:31:05;-1.00;99.90
27900;DHT22;15243;50.726;7.080;2023-03-02T00:33:32;-0.90;99.90
27900;DHT22;15243;50.726;7.080;2023-03-02T00:36:00;-1.00;99.90
27900;DHT22;15243;50.726;7.080;2023-03-02T00:38:28;-1.00;99.90
27900;DHT22;15243;50.726;7.080;2023-03-02T00:40:55;-1.10;99.90
27900;DHT22;15243;50.726;7.080;2023-03-02T00:43:22;-1.10;99.90
27900;DHT22;15243;50.726;7.080;2023-03-02T00:45:53;-1.10;99.90
27900;DHT22;15243;50.726;7.080;2023-03-02T00:48:20;-1.20;99.90
27900;DHT22;15243;50.726;7.080;2023-03-02T00:50:47;-1.20;99.90
27900;DHT22;15243;50.726;7.080;2023-03-02T00:53:14;-1.20;99.90
27900;DHT22;15243;50.726;7.080;2023-03-02T00:55:41;-1.10;99.90
27900;DHT22;15243;50.726;7.080;2023-03-02T00:58:08;-1.10;99.90
27900;DHT22;15243;50.726;7.080;2023-03-02T01:00:36;-1.10;99.90
27900;DHT22;15243;50.726;7.080;2023-03-02T01:03:03;-1.00;99.90
27900;DHT22;15243;50.726;7.080;2023-03-02T01:05:30;-1.00;99.90
27900;DHT22;15243;50.726;7.080;2023-03-02T01:07:56;-1.00;99.90
27900;DHT22;15243;50.726;7.080;2023-03-02T01:10:23;-1.00;99.90
27900;DHT22;15243;50.726;7.080;2023-03-02T01:12:50;-0.80;99.90
27900;DHT22;15243;50.726;7.080;2023-03-02T01:15:17;-1.00;99.90
27900;DHT22;15243;50.726;7.080;2023-03-02T01:17:44;-1.00;99.90
27900;DHT22;15243;50.726;7.080;2023-03-02T01:20:12;-1.10;99.90
27900;DHT22;15243;50.726;7.080;2023-03-02T01:22:40;-1.10;99.90
27900;DHT22;15243;50.726;7.080;2023-03-02T01:25:08;-1.30;99.90
27900;DHT22;15243;50.726;7.080;2023-03-02T01:27:34;-1.20;99.90
27900;DHT22;15243;50.726;7.080;2023-03-02T01:30:01;-1.30;99.90
27900;DHT22;15243;50.726;7.080;2023-03-02T01:32:28;-1.30;99.90
27900;DHT22;15243;50.726;7.080;2023-03-02T01:34:55;-1.40;99.90
27900;DHT22;15243;50.726;7.080;2023-03-02T01:37:22;-1.30;99.90
27900;DHT22;15243;50.726;7.080;2023-03-02T01:39:49;-1.40;99.90
27900;DHT22;15243;50.726;7.080;2023-03-02T01:42:16;-1.40;99.90
27900;DHT22;15243;50.726;7.080;2023-03-02T01:44:49;-1.30;99.90
27900;DHT22;15243;50.726;7.080;2023-03-02T01:47:26;-1.40;99.90
27900;DHT22;15243;50.726;7.080;2023-03-02T01:50:16;-1.40;99.90
27900;DHT22;15243;50.726;7.080;2023-03-02T01:52:45;-1.50;99.90
27900;DHT22;15243;50.726;7.080;2023-03-02T01:55:16;-1.40;99.90
27900;DHT22;15243;50.726;7.080;2023-03-02T01:57:47;-1.40;99.90
27900;DHT22;15243;50.726;7.080;2023-03-02T02:00:21;-1.40;99.90
27900;DHT22;15243;50.726;7.080;2023-03-02T02:02:50;-1.50;99.90
27900;DHT22;15243;50.726;7.080;2023-03-02T02:05:26;-1.50;99.90
27900;DHT22;15243;50.726;7.080;2023-03-02T02:07:53;-1.40;99.90
27900;DHT22;15243;50.726;7.080;2023-03-02T02:10:20;-1.40;99.90
27900;DHT22;15243;50.726;7.080;2023-03-02T02:12:47;-1.50;99.90
27900;DHT22;15243;50.726;7.080;2023-03-02T02:15:14;-1.50;99.90
27900;DHT22;15243;50.726;7.080;2023-03-02T02:17:41;-1.50;99.90
27900;DHT22;15243;50.726;7.080;2023-03-02T02:20:31;-1.60;99.90
27900;DHT22;15243;50.726;7.080;2023-03-02T02:23:44;-1.60;99.90
27900;DHT22;15243;50.726;7.080;2023-03-02T02:26:22;-1.50;99.90
27900;DHT22;15243;50.726;7.080;2023-03-02T02:29:04;-1.60;99.90
27900;DHT22;15243;50.726;7.080;2023-03-02T02:31:42;-1.60;99.90
27900;DHT22;15243;50.726;7.080;2023-03-02T02:34:21;-1.60;99.90
27900;DHT22;15243;50.726;7.080;2023-03-02T02:36:53;-1.60;99.90
27900;DHT22;15243;50.726;7.080;2023-03-02T02:39:26;-1.60;99.90
27900;DHT22;15243;50.726;7.080;2023-03-02T02:41:57;-1.60;99.90
27900;DHT22;15243;50.726;7.080;2023-03-02T02:44:25;-1.70;99.90
27900;DHT22;15243;50.726;7.080;2023-03-02T02:46:52;-1.70;99.90
27900;DHT22;15243;50.726;7.080;2023-03-02T02:49:32;-1.70;99.90
27900;DHT22;15243;50.726;7.080;2023-03-02T02:52:02;-1.70;99.90
27900;DHT22;15243;50.726;7.080;2023-03-02T02:54:30;-1.70;99.90
27900;DHT22;15243;50.726;7.080;2023-03-02T02:56:58;-1.80;99.90
27900;DHT22;15243;50.726;7.080;2023-03-02T02:59:42;-1.70;99.90
27900;DHT22;15243;50.726;7.080;2023-03-02T03:02:16;-1.70;99.90
27900;DHT22;15243;50.726;7.080;2023-03-02T03:04:45;-1.80;99.90
27900;DHT22;15243;50.726;7.080;2023-03-02T03:07:23;-1.80;99.90
27900;DHT22;15243;50.726;7.080;2023-03-02T03:10:26;-1.80;99.90
27900;DHT22;15243;50.726;7.080;2023-03-02T03:12:54;-1.90;99.90
27900;DHT22;15243;50.726;7.080;2023-03-02T03:15:22;-1.90;99.90
27900;DHT22;15243;50.726;7.080;2023-03-02T03:17:56;-1.80;99.90
27900;DHT22;15243;50.726;7.080;2023-03-02T03:20:25;-1.80;99.90
27900;DHT22;15243;50.726;7.080;2023-03-02T03:22:52;-1.80;99.90
27900;DHT22;15243;50.726;7.080;2023-03-02T03:25:20;-1.80;99.90
27900;DHT22;15243;50.726;7.080;2023-03-02T03:27:48;-1.80;99.90
27900;DHT22;15243;50.726;7.080;2023-03-02T03:30:16;-1.80;99.90
27900;DHT22;15243;50.726;7.080;2023-03-02T03:32:42;-1.80;99.90
27900;DHT22;15243;50.726;7.080;2023-03-02T03:35:09;-1.80;99.90
27900;DHT22;15243;50.726;7.080;2023-03-02T03:37:40;-1.80;99.90
27900;DHT22;15243;50.726;7.080;2023-03-02T03:40:07;-1.80;99.90
27900;DHT22;15243;50.726;7.080;2023-03-02T03:42:36;-1.90;99.90
27900;DHT22;15243;50.726;7.080;2023-03-02T03:45:05;-2.00;99.90
27900;DHT22;15243;50.726;7.080;2023-03-02T03:47:33;-2.00;99.90
27900;DHT22;15243;50.726;7.080;2023-03-02T03:50:00;-2.00;99.90
27900;DHT22;15243;50.726;7.080;2023-03-02T03:52:27;-2.00;99.90
27900;DHT22;15243;50.726;7.080;2023-03-02T03:54:58;-2.00;99.90
27900;DHT22;15243;50.726;7.080;2023-03-02T03:57:27;-1.90;99.90
27900;DHT22;15243;50.726;7.080;2023-03-02T03:59:54;-2.00;99.90
27900;DHT22;15243;50.726;7.080;2023-03-02T04:02:21;-2.00;99.90
27900;DHT22;15243;50.726;7.080;2023-03-02T04:04:48;-2.00;99.90
27900;DHT22;15243;50.726;7.080;2023-03-02T04:07:15;-2.00;99.90
27900;DHT22;15243;50.726;7.080;2023-03-02T04:09:43;-2.10;99.90
27900;DHT22;15243;50.726;7.080;2023-03-02T04:12:10;-2.10;99.90
27900;DHT22;15243;50.726;7.080;2023-03-02T04:14:37;-2.10;99.90
27900;DHT22;15243;50.726;7.080;2023-03-02T04:17:04;-2.00;99.90
27900;DHT22;15243;50.726;7.080;2023-03-02T04:19:33;-2.10;99.90
27900;DHT22;15243;50.726;7.080;2023-03-02T04:22:01;-2.10;99.90
27900;DHT22;15243;50.726;7.080;2023-03-02T04:24:29;-2.20;99.90
27900;DHT22;15243;50.726;7.080;2023-03-02T04:26:56;-2.20;99.90
27900;DHT22;15243;50.726;7.080;2023-03-02T04:29:23;-2.10;99.90
27900;DHT22;15243;50.726;7.080;2023-03-02T04:31:50;-2.20;99.90
27900;DHT22;15243;50.726;7.080;2023-03-02T04:34:17;-2.20;99.90
27900;DHT22;15243;50.726;7.080;2023-03-02T04:36:44;-2.20;99.90
27900;DHT22;15243;50.726;7.080;2023-03-02T04:39:13;-2.20;99.90
27900;DHT22;15243;50.726;7.080;2023-03-02T04:41:41;-2.20;99.90
27900;DHT22;15243;50.726;7.080;2023-03-02T04:44:07;-2.30;99.90
27900;DHT22;15243;50.726;7.080;2023-03-02T04:46:34;-2.30;99.90
27900;DHT22;15243;50.726;7.080;2023-03-02T04:49:02;-2.30;99.90
27900;DHT22;15243;50.726;7.080;2023-03-02T04:51:35;-2.20;99.90
27900;DHT22;15243;50.726;7.080;2023-03-02T04:54:10;-2.20;99.90
27900;DHT22;15243;50.726;7.080;2023-03-02T04:56:38;-2.30;99.90
27900;DHT22;15243;50.726;7.080;2023-03-02T04:59:05;-2.30;99.90
27900;DHT22;15243;50.726;7.080;2023-03-02T05:01:32;-2.30;99.90
27900;DHT22;15243;50.726;7.080;2023-03-02T05:03:59;-2.30;99.90
27900;DHT22;15243;50.726;7.080;2023-03-02T05:06:28;-2.20;99.90
27900;DHT22;15243;50.726;7.080;2023-03-02T05:08:56;-2.20;99.90
27900;DHT22;15243;50.726;7.080;2023-03-02T05:11:26;-2.20;99.90
27900;DHT22;15243;50.726;7.080;2023-03-02T05:13:58;-2.20;99.90
27900;DHT22;15243;50.726;7.080;2023-03-02T05:16:28;-2.30;99.90
27900;DHT22;15243;50.726;7.080;2023-03-02T05:18:55;-2.20;99.90
27900;DHT22;15243;50.726;7.080;2023-03-02T05:21:22;-2.30;99.90
27900;DHT22;15243;50.726;7.080;2023-03-02T05:23:49;-2.40;99.90
27900;DHT22;15243;50.726;7.080;2023-03-02T05:26:17;-2.40;99.90
27900;DHT22;15243;50.726;7.080;2023-03-02T05:28:44;-2.40;99.90
27900;DHT22;15243;50.726;7.080;2023-03-02T05:31:22;-2.40;99.90
27900;DHT22;15243;50.726;7.080;2023-03-02T05:33:50;-2.50;99.90
27900;DHT22;15243;50.726;7.080;2023-03-02T05:36:17;-2.40;99.90
27900;DHT22;15243;50.726;7.080;2023-03-02T05:38:46;-2.50;99.90
27900;DHT22;15243;50.726;7.080;2023-03-02T05:41:13;-2.50;99.90
27900;DHT22;15243;50.726;7.080;2023-03-02T05:43:40;-2.40;99.90
27900;DHT22;15243;50.726;7.080;2023-03-02T05:46:07;-2.40;99.90
27900;DHT22;15243;50.726;7.080;2023-03-02T05:48:34;-2.40;99.90
27900;DHT22;15243;50.726;7.080;2023-03-02T05:51:01;-2.40;99.90
27900;DHT22;15243;50.726;7.080;2023-03-02T05:53:28;-2.40;99.90
27900;DHT22;15243;50.726;7.080;2023-03-02T05:55:55;-2.30;99.90
27900;DHT22;15243;50.726;7.080;2023-03-02T05:58:22;-2.40;99.90
27900;DHT22;15243;50.726;7.080;2023-03-02T06:00:49;-2.50;99.90
27900;DHT22;15243;50.726;7.080;2023-03-02T06:03:16;-2.50;99.90
27900;DHT22;15243;50.726;7.080;2023-03-02T06:05:43;-2.50;99.90
27900;DHT22;15243;50.726;7.080;2023-03-02T06:08:10;-2.50;99.90
27900;DHT22;15243;50.726;7.080;2023-03-02T06:10:37;-2.60;99.90
27900;DHT22;15243;50.726;7.080;2023-03-02T06:13:04;-2.50;99.90
27900;DHT22;15243;50.726;7.080;2023-03-02T06:15:31;-2.50;99.90
27900;DHT22;15243;50.726;7.080;2023-03-02T06:17:57;-2.60;99.90
27900;DHT22;15243;50.726;7.080;2023-03-02T06:20:24;-2.60;99.90
27900;DHT22;15243;50.726;7.080;2023-03-02T06:22:51;-2.60;99.90
27900;DHT22;15243;50.726;7.080;2023-03-02T06:25:21;-2.50;99.90
27900;DHT22;15243;50.726;7.080;2023-03-02T06:27:48;-2.40;99.90
27900;DHT22;15243;50.726;7.080;2023-03-02T06:30:18;-2.30;99.90
27900;DHT22;15243;50.726;7.080;2023-03-02T06:32:45;-2.50;99.90
27900;DHT22;15243;50.726;7.080;2023-03-02T06:35:12;-2.50;99.90
27900;DHT22;15243;50.726;7.080;2023-03-02T06:37:39;-2.40;99.90
27900;DHT22;15243;50.726;7.080;2023-03-02T06:40:10;-2.20;99.90
27900;DHT22;15243;50.726;7.080;2023-03-02T06:42:39;-2.10;99.90
27900;DHT22;15243;50.726;7.080;2023-03-02T06:45:07;-2.10;99.90
27900;DHT22;15243;50.726;7.080;2023-03-02T06:47:34;-2.20;99.90
27900;DHT22;15243;50.726;7.080;2023-03-02T06:50:01;-2.20;99.90
27900;DHT22;15243;50.726;7.080;2023-03-02T06:52:29;-2.10;99.90
27900;DHT22;15243;50.726;7.080;2023-03-02T06:54:55;-2.10;99.90
27900;DHT22;15243;50.726;7.080;2023-03-02T06:57:22;-2.00;99.90
27900;DHT22;15243;50.726;7.080;2023-03-02T06:59:49;-1.90;99.90
27900;DHT22;15243;50.726;7.080;2023-03-02T07:02:16;-1.90;99.90
27900;DHT22;15243;50.726;7.080;2023-03-02T07:04:43;-1.80;99.90
27900;DHT22;15243;50.726;7.080;2023-03-02T07:07:10;-1.80;99.90
27900;DHT22;15243;50.726;7.080;2023-03-02T07:09:36;-1.70;99.90
27900;DHT22;15243;50.726;7.080;2023-03-02T07:12:03;-1.60;99.90
27900;DHT22;15243;50.726;7.080;2023-03-02T07:14:30;-1.40;99.90
27900;DHT22;15243;50.726;7.080;2023-03-02T07:16:57;-1.30;99.90
27900;DHT22;15243;50.726;7.080;2023-03-02T07:19:25;-1.20;99.90
27900;DHT22;15243;50.726;7.080;2023-03-02T07:21:52;-1.20;99.90
27900;DHT22;15243;50.726;7.080;2023-03-02T07:24:19;-1.30;99.90
27900;DHT22;15243;50.726;7.080;2023-03-02T07:26:47;-1.10;99.90
27900;DHT22;15243;50.726;7.080;2023-03-02T07:29:14;-1.00;99.90
27900;DHT22;15243;50.726;7.080;2023-03-02T07:31:41;-0.90;99.90
27900;DHT22;15243;50.726;7.080;2023-03-02T07:34:09;-0.90;99.90
27900;DHT22;15243;50.726;7.080;2023-03-02T07:36:36;-0.80;99.90
27900;DHT22;15243;50.726;7.080;2023-03-02T07:39:03;-0.70;99.90
27900;DHT22;15243;50.726;7.080;2023-03-02T07:41:31;-0.50;99.90
27900;DHT22;15243;50.726;7.080;2023-03-02T07:43:58;-0.40;99.90
27900;DHT22;15243;50.726;7.080;2023-03-02T07:46:25;-0.30;99.90
27900;DHT22;15243;50.726;7.080;2023-03-02T07:48:52;-0.20;99.90
27900;DHT22;15243;50.726;7.080;2023-03-02T07:51:19;-0.10;99.90
27900;DHT22;15243;50.726;7.080;2023-03-02T07:53:46;0.00;99.90
27900;DHT22;15243;50.726;7.080;2023-03-02T07:56:13;-0.10;99.90
27900;DHT22;15243;50.726;7.080;2023-03-02T07:58:40;0.00;99.90
27900;DHT22;15243;50.726;7.080;2023-03-02T08:01:07;0.10;99.90
27900;DHT22;15243;50.726;7.080;2023-03-02T08:03:35;0.20;99.90
27900;DHT22;15243;50.726;7.080;2023-03-02T08:06:07;0.30;99.90
27900;DHT22;15243;50.726;7.080;2023-03-02T08:08:35;0.30;99.90
27900;DHT22;15243;50.726;7.080;2023-03-02T08:11:11;0.40;99.90
27900;DHT22;15243;50.726;7.080;2023-03-02T08:13:39;0.50;99.90
27900;DHT22;15243;50.726;7.080;2023-03-02T08:16:07;0.60;99.90
27900;DHT22;15243;50.726;7.080;2023-03-02T08:18:36;0.90;99.90
27900;DHT22;15243;50.726;7.080;2023-03-02T08:21:04;1.30;99.20
27900;DHT22;15243;50.726;7.080;2023-03-02T08:23:31;1.20;94.50
27900;DHT22;15243;50.726;7.080;2023-03-02T08:25:57;1.20;95.40
27900;DHT22;15243;50.726;7.080;2023-03-02T08:28:24;1.50;90.00
27900;DHT22;15243;50.726;7.080;2023-03-02T08:30:58;1.60;90.60
27900;DHT22;15243;50.726;7.080;2023-03-02T08:33:26;1.70;84.30
27900;DHT22;15243;50.726;7.080;2023-03-02T08:36:05;1.90;61.40
27900;DHT22;15243;50.726;7.080;2023-03-02T08:38:34;1.80;55.90
27900;DHT22;15243;50.726;7.080;2023-03-02T08:41:06;1.70;60.50
27900;DHT22;15243;50.726;7.080;2023-03-02T08:43:34;2.00;54.80
27900;DHT22;15243;50.726;7.080;2023-03-02T08:46:01;2.00;54.70
27900;DHT22;15243;50.726;7.080;2023-03-02T08:48:28;2.20;39.90
27900;DHT22;15243;50.726;7.080;2023-03-02T08:53:26;2.30;39.80
27900;DHT22;15243;50.726;7.080;2023-03-02T08:55:53;2.10;44.70
27900;DHT22;15243;50.726;7.080;2023-03-02T08:58:20;2.30;47.70
27900;DHT22;15243;50.726;7.080;2023-03-02T09:00:47;2.50;31.40
27900;DHT22;15243;50.726;7.080;2023-03-02T09:03:14;2.50;41.00
27900;DHT22;15243;50.726;7.080;2023-03-02T09:05:41;2.80;35.90
27900;DHT22;15243;50.726;7.080;2023-03-02T09:08:09;3.00;21.00
27900;DHT22;15243;50.726;7.080;2023-03-02T09:10:36;3.00;8.30
27900;DHT22;15243;50.726;7.080;2023-03-02T09:13:04;3.10;19.80
27900;DHT22;15243;50.726;7.080;2023-03-02T09:15:34;3.00;12.60
27900;DHT22;15243;50.726;7.080;2023-03-02T09:18:00;3.10;17.40
27900;DHT22;15243;50.726;7.080;2023-03-02T09:20:27;3.40;2.60
27900;DHT22;15243;50.726;7.080;2023-03-02T09:22:54;3.40;1.00
27900;DHT22;15243;50.726;7.080;2023-03-02T09:25:21;3.70;1.00
27900;DHT22;15243;50.726;7.080;2023-03-02T09:27:48;3.90;1.00
27900;DHT22;15243;50.726;7.080;2023-03-02T09:30:15;3.90;1.00
27900;DHT22;15243;50.726;7.080;2023-03-02T09:32:42;4.20;1.00
27900;DHT22;15243;50.726;7.080;2023-03-02T09:35:09;4.30;1.00
27900;DHT22;15243;50.726;7.080;2023-03-02T09:37:36;4.40;1.00
27900;DHT22;15243;50.726;7.080;2023-03-02T09:40:12;4.10;1.00
27900;DHT22;15243;50.726;7.080;2023-03-02T09:46:16;4.30;1.00
27900;DHT22;15243;50.726;7.080;2023-03-02T09:49:13;4.40;1.00
27900;DHT22;15243;50.726;7.080;2023-03-02T09:51:46;4.80;1.00
27900;DHT22;15243;50.726;7.080;2023-03-02T09:54:20;4.80;1.00
27900;DHT22;15243;50.726;7.080;2023-03-02T09:56:54;4.90;1.00
27900;DHT22;15243;50.726;7.080;2023-03-02T09:59:36;4.90;1.00
27900;DHT22;15243;50.726;7.080;2023-03-02T10:02:31;5.00;1.00
27900;DHT22;15243;50.726;7.080;2023-03-02T10:05:03;5.40;1.00
27900;DHT22;15243;50.726;7.080;2023-03-02T10:07:34;5.80;1.00
27900;DHT22;15243;50.726;7.080;2023-03-02T10:10:20;5.80;1.00
27900;DHT22;15243;50.726;7.080;2023-03-02T10:13:01;5.90;1.00
27900;DHT22;15243;50.726;7.080;2023-03-02T10:16:04;5.80;1.00
27900;DHT22;15243;50.726;7.080;2023-03-02T10:18:29;5.80;1.00
27900;DHT22;15243;50.726;7.080;2023-03-02T10:23:47;6.30;1.00
27900;DHT22;15243;50.726;7.080;2023-03-02T10:26:41;6.60;1.00
27900;DHT22;15243;50.726;7.080;2023-03-02T10:29:22;7.00;1.00
27900;DHT22;15243;50.726;7.080;2023-03-02T10:32:03;7.00;1.00
27900;DHT22;15243;50.726;7.080;2023-03-02T10:34:34;7.20;1.00
27900;DHT22;15243;50.726;7.080;2023-03-02T10:37:01;7.30;99.90
27900;DHT22;15243;50.726;7.080;2023-03-02T10:39:28;7.40;99.90
27900;DHT22;15243;50.726;7.080;2023-03-02T10:41:59;7.50;99.90
27900;DHT22;15243;50.726;7.080;2023-03-02T10:44:33;7.80;99.90
27900;DHT22;15243;50.726;7.080;2023-03-02T10:47:04;7.80;99.90
27900;DHT22;15243;50.726;7.080;2023-03-02T10:49:36;8.10;99.90
27900;DHT22;15243;50.726;7.080;2023-03-02T10:52:20;7.80;99.90
27900;DHT22;15243;50.726;7.080;2023-03-02T10:54:47;7.50;99.90
27900;DHT22;15243;50.726;7.080;2023-03-02T10:57:40;7.50;99.90
27900;DHT22;15243;50.726;7.080;2023-03-02T11:02:53;7.90;99.90
27900;DHT22;15243;50.726;7.080;2023-03-02T11:05:33;8.20;99.90
27900;DHT22;15243;50.726;7.080;2023-03-02T11:08:03;8.30;99.90
27900;DHT22;15243;50.726;7.080;2023-03-02T11:13:01;8.30;99.90
27900;DHT22;15243;50.726;7.080;2023-03-02T11:18:04;8.70;99.90
27900;DHT22;15243;50.726;7.080;2023-03-02T11:20:36;9.00;99.90
27900;DHT22;15243;50.726;7.080;2023-03-02T11:26:04;8.60;99.90
27900;DHT22;15243;50.726;7.080;2023-03-02T11:28:47;8.90;99.90
27900;DHT22;15243;50.726;7.080;2023-03-02T11:31:39;8.90;99.90
27900;DHT22;15243;50.726;7.080;2023-03-02T11:34:25;8.60;99.90
27900;DHT22;15243;50.726;7.080;2023-03-02T11:42:37;9.30;99.90
27900;DHT22;15243;50.726;7.080;2023-03-02T11:47:57;9.30;99.90
27900;DHT22;15243;50.726;7.080;2023-03-02T11:50:34;9.50;99.90
27900;DHT22;15243;50.726;7.080;2023-03-02T11:53:09;9.10;99.90
27900;DHT22;15243;50.726;7.080;2023-03-02T11:55:43;9.20;99.90
27900;DHT22;15243;50.726;7.080;2023-03-02T11:58:22;9.30;99.90
27900;DHT22;15243;50.726;7.080;2023-03-02T12:00:52;9.80;99.90
27900;DHT22;15243;50.726;7.080;2023-03-02T12:11:02;10.10;99.90
27900;DHT22;15243;50.726;7.080;2023-03-02T12:13:32;10.00;99.90
27900;DHT22;15243;50.726;7.080;2023-03-02T12:15:59;9.90;99.90
27900;DHT22;15243;50.726;7.080;2023-03-02T12:18:41;10.00;99.90
27900;DHT22;15243;50.726;7.080;2023-03-02T12:21:28;10.20;99.90
27900;DHT22;15243;50.726;7.080;2023-03-02T12:24:00;10.20;99.90
27900;DHT22;15243;50.726;7.080;2023-03-02T12:26:33;10.40;99.90
27900;DHT22;15243;50.726;7.080;2023-03-02T12:31:51;10.60;99.90
27900;DHT22;15243;50.726;7.080;2023-03-02T12:34:36;10.60;99.90
27900;DHT22;15243;50.726;7.080;2023-03-02T12:37:13;10.50;99.90
27900;DHT22;15243;50.726;7.080;2023-03-02T12:45:31;10.90;99.90
27900;DHT22;15243;50.726;7.080;2023-03-02T12:48:04;11.00;99.90
27900;DHT22;15243;50.726;7.080;2023-03-02T12:50:36;11.10;99.90
27900;DHT22;15243;50.726;7.080;2023-03-02T12:53:06;11.40;99.90
27900;DHT22;15243;50.726;7.080;2023-03-02T12:55:40;11.30;99.90
27900;DHT22;15243;50.726;7.080;2023-03-02T12:58:19;11.30;99.90
27900;DHT22;15243;50.726;7.080;2023-03-02T13:00:52;11.40;99.90
27900;DHT22;15243;50.726;7.080;2023-03-02T13:03:20;11.50;99.90
27900;DHT22;15243;50.726;7.080;2023-03-02T13:05:48;11.50;99.90
27900;DHT22;15243;50.726;7.080;2023-03-02T13:08:19;11.60;99.90
27900;DHT22;15243;50.726;7.080;2023-03-02T13:10:54;11.60;99.90
27900;DHT22;15243;50.726;7.080;2023-03-02T13:13:25;11.80;99.90
27900;DHT22;15243;50.726;7.080;2023-03-02T13:15:55;12.20;99.90
27900;DHT22;15243;50.726;7.080;2023-03-02T13:18:33;12.50;99.90
27900;DHT22;15243;50.726;7.080;2023-03-02T13:21:03;12.70;99.90
27900;DHT22;15243;50.726;7.080;2023-03-02T13:23:32;13.00;63.00
27900;DHT22;15243;50.726;7.080;2023-03-02T13:26:02;13.20;84.60
27900;DHT22;15243;50.726;7.080;2023-03-02T13:28:33;13.50;27.50
27900;DHT22;15243;50.726;7.080;2023-03-02T13:31:21;13.60;1.00
27900;DHT22;15243;50.726;7.080;2023-03-02T13:33:49;13.60;1.00
27900;DHT22;15243;50.726;7.080;2023-03-02T13:36:19;13.90;1.00
27900;DHT22;15243;50.726;7.080;2023-03-02T13:38:49;13.70;1.00
27900;DHT22;15243;50.726;7.080;2023-03-02T13:41:24;13.90;1.00
27900;DHT22;15243;50.726;7.080;2023-03-02T13:43:51;13.80;13.70
27900;DHT22;15243;50.726;7.080;2023-03-02T13:49:12;14.30;1.00
27900;DHT22;15243;50.726;7.080;2023-03-02T13:51:47;14.70;1.00
27900;DHT22;15243;50.726;7.080;2023-03-02T13:54:32;15.00;1.00
27900;DHT22;15243;50.726;7.080;2023-03-02T13:57:02;15.00;1.00
27900;DHT22;15243;50.726;7.080;2023-03-02T13:59:29;14.70;1.00
27900;DHT22;15243;50.726;7.080;2023-03-02T14:02:00;15.10;25.00
27900;DHT22;15243;50.726;7.080;2023-03-02T14:04:27;15.30;1.00
27900;DHT22;15243;50.726;7.080;2023-03-02T14:06:54;15.40;1.00
27900;DHT22;15243;50.726;7.080;2023-03-02T14:09:21;15.80;1.00
27900;DHT22;15243;50.726;7.080;2023-03-02T14:11:52;16.00;1.00
27900;DHT22;15243;50.726;7.080;2023-03-02T14:14:23;14.50;1.00
27900;DHT22;15243;50.726;7.080;2023-03-02T14:16:50;15.40;1.00
27900;DHT22;15243;50.726;7.080;2023-03-02T14:19:17;15.00;1.00
27900;DHT22;15243;50.726;7.080;2023-03-02T14:21:45;14.70;1.00
27900;DHT22;15243;50.726;7.080;2023-03-02T14:24:13;15.30;1.00
27900;DHT22;15243;50.726;7.080;2023-03-02T14:26:46;16.50;1.00
27900;DHT22;15243;50.726;7.080;2023-03-02T14:31:46;16.30;1.00
27900;DHT22;15243;50.726;7.080;2023-03-02T14:34:14;17.10;1.00
27900;DHT22;15243;50.726;7.080;2023-03-02T14:36:43;16.50;1.00
27900;DHT22;15243;50.726;7.080;2023-03-02T14:39:33;17.10;1.00
27900;DHT22;15243;50.726;7.080;2023-03-02T14:42:01;15.90;1.00
27900;DHT22;15243;50.726;7.080;2023-03-02T14:44:28;16.10;1.00
27900;DHT22;15243;50.726;7.080;2023-03-02T14:46:55;16.30;1.00
27900;DHT22;15243;50.726;7.080;2023-03-02T14:49:25;16.70;1.00
27900;DHT22;15243;50.726;7.080;2023-03-02T14:52:06;17.60;1.00
27900;DHT22;15243;50.726;7.080;2023-03-02T14:54:47;17.90;1.00
27900;DHT22;15243;50.726;7.080;2023-03-02T14:57:19;18.10;1.00
27900;DHT22;15243;50.726;7.080;2023-03-02T14:59:47;18.50;1.00
27900;DHT22;15243;50.726;7.080;2023-03-02T15:02:14;18.20;1.00
27900;DHT22;15243;50.726;7.080;2023-03-02T15:04:51;18.80;99.90
27900;DHT22;15243;50.726;7.080;2023-03-02T15:07:23;18.30;1.00
27900;DHT22;15243;50.726;7.080;2023-03-02T15:09:50;17.10;99.90
27900;DHT22;15243;50.726;7.080;2023-03-02T15:12:17;18.30;1.00
27900;DHT22;15243;50.726;7.080;2023-03-02T15:14:44;17.20;99.90
27900;DHT22;15243;50.726;7.080;2023-03-02T15:17:11;15.70;99.90
27900;DHT22;15243;50.726;7.080;2023-03-02T15:19:37;14.70;99.90
27900;DHT22;15243;50.726;7.080;2023-03-02T15:22:04;15.10;99.90
27900;DHT22;15243;50.726;7.080;2023-03-02T15:24:31;14.40;99.90
27900;DHT22;15243;50.726;7.080;2023-03-02T15:26:59;15.90;99.90
27900;DHT22;15243;50.726;7.080;2023-03-02T15:29:26;15.50;99.90
27900;DHT22;15243;50.726;7.080;2023-03-02T15:31:53;15.80;99.90
27900;DHT22;15243;50.726;7.080;2023-03-02T15:34:20;16.20;99.90
27900;DHT22;15243;50.726;7.080;2023-03-02T15:36:47;16.40;99.90
27900;DHT22;15243;50.726;7.080;2023-03-02T15:39:14;15.50;99.90
27900;DHT22;15243;50.726;7.080;2023-03-02T15:41:42;16.30;99.90
27900;DHT22;15243;50.726;7.080;2023-03-02T15:44:17;15.50;99.90
27900;DHT22;15243;50.726;7.080;2023-03-02T15:46:48;15.50;99.90
27900;DHT22;15243;50.726;7.080;2023-03-02T15:49:15;16.10;99.90
27900;DHT22;15243;50.726;7.080;2023-03-02T15:51:46;16.00;99.90
27900;DHT22;15243;50.726;7.080;2023-03-02T15:54:14;15.00;99.90
27900;DHT22;15243;50.726;7.080;2023-03-02T15:56:41;14.70;99.90
27900;DHT22;15243;50.726;7.080;2023-03-02T15:59:10;14.50;99.90
27900;DHT22;15243;50.726;7.080;2023-03-02T16:01:37;14.70;99.90
27900;DHT22;15243;50.726;7.080;2023-03-02T16:04:04;14.80;99.90
27900;DHT22;15243;50.726;7.080;2023-03-02T16:06:31;14.00;99.90
27900;DHT22;15243;50.726;7.080;2023-03-02T16:08:58;13.40;99.90
27900;DHT22;15243;50.726;7.080;2023-03-02T16:11:24;13.50;99.90
27900;DHT22;15243;50.726;7.080;2023-03-02T16:13:51;14.00;99.90
27900;DHT22;15243;50.726;7.080;2023-03-02T16:16:19;14.50;99.90
27900;DHT22;15243;50.726;7.080;2023-03-02T16:18:51;13.60;99.90
27900;DHT22;15243;50.726;7.080;2023-03-02T16:21:18;12.70;99.90
27900;DHT22;15243;50.726;7.080;2023-03-02T16:23:45;12.10;1.00
27900;DHT22;15243;50.726;7.080;2023-03-02T16:26:15;11.70;1.00
27900;DHT22;15243;50.726;7.080;2023-03-02T16:28:42;11.70;1.00
27900;DHT22;15243;50.726;7.080;2023-03-02T16:31:16;11.60;1.00
27900;DHT22;15243;50.726;7.080;2023-03-02T16:33:45;11.20;1.00
27900;DHT22;15243;50.726;7.080;2023-03-02T16:36:13;11.10;30.60
27900;DHT22;15243;50.726;7.080;2023-03-02T16:38:40;11.10;77.60
27900;DHT22;15243;50.726;7.080;2023-03-02T16:41:13;10.90;15.00
27900;DHT22;15243;50.726;7.080;2023-03-02T16:43:44;10.90;27.20
27900;DHT22;15243;50.726;7.080;2023-03-02T16:46:11;10.80;59.40